LFBHLFMK

Guest
Details From LFBH - La Rochelle Laleu
To LFMK - Salvaza
Flight Number -
Tags Generated
Created
Modified
Stats Distance 232 nm / 430 km
Max Altitude 0 ft / 0 m
Waypoints 3
Social Downloads 0
Likes 0
Share VATSIM

Download

Looking for another format? Having issues loading an existing format? Contact us
Advertisement - Login to hide

Notes

Generated

Route

LFBH ARVEL LFMK

ID Type Via Altitude Latitude Longitude Leg Dist Tot Dist Heading (true) Name
O LFBH APT - 0 ft / 0 m 46.17968˚ -1.21101˚ - 0 nm - -
ARVEL FIX - 0 ft / 0 m 43.45192˚ 2.03414˚ 214 nm 214 nm 139° / 141° -
O LFMK APT - 0 ft / 0 m 43.21714˚ 2.29266˚ 18 nm 232 nm 141° / 141° -

Altitude Profile

Advertisement - Login to hide

Weather


0- 5 10 15 20 25 30 35+ Temperature / ° C

Clouds and Precipitation
Forecast for 2017-12-18 06:00 UTC. Updated 2 hours ago

Ground ~20,000 ft ~40,000 ft Winds

LFBH

Details ICAO LFBH (LRH)
Name La Rochelle Laleu
Region France
Timezone Europe/Paris (UTC+1.0)
Stats Elevation 74 ft / 23 m (AMSL)
Location 46.179245° -1.196410°
Runways 1
Magnetic Variation 0.301° W

METAR

LFBH 180630Z AUTO 26013KT 6000 DZ BKN009 OVC013 11/10 Q1027 TEMPO 1500 RADZ

Decode

TAF

TAF LFBH 180500Z 1806/1906 27005KT 9999 BKN025 PROB40 TEMPO 1806/1813 1500 RADZ OVC005 PROB30 TEMPO 1809/1813 OVC002 BECMG 1813/1815 35012KT BKN015 BECMG 1815/1817 05010KT NSC

Decode

Departure Runways

ID Width Length Bearing (true) Bearing (mag) Surface Threshold Offset Overrun Length
10 148 ft / 45 m 7,383 ft / 2,250 m 92.43° 92.73° Asphalt 1,033 ft / 315 m 0 ft / 0 m
28 148 ft / 45 m 7,383 ft / 2,250 m 272.45° 272.75° Asphalt 1,532 ft / 467 m 0 ft / 0 m

LFMK

Details ICAO LFMK (CCF)
Name Salvaza
Region France
Timezone Europe/Paris (UTC+1.0)
Stats Elevation 433 ft / 132 m (AMSL)
Location 43.216122° 2.305496°
Runways 1
Magnetic Variation 0.837° E

METAR

LFMK 180630Z AUTO 30008KT 9999 OVC060 07/04 Q1029 NOSIG

Decode

TAF

TAF LFMK 180200Z 1803/1903 29012KT 9999 OVC025 TEMPO 1810/1818 30020G35KT RA BKN012 BECMG 1819/1821 CAVOK

Decode

Destination Runways

ID Width Length Bearing (true) Bearing (mag) Surface Threshold Offset Overrun Length
10 148 ft / 45 m 6,869 ft / 2,094 m 96.20° 95.36° Asphalt 479 ft / 146 m 0 ft / 0 m
28 148 ft / 45 m 6,869 ft / 2,094 m 276.22° 275.38° Asphalt 492 ft / 150 m 0 ft / 0 m

Approach Navaids

Runway Type Ident Frequency Range Bearing (true) Bearing (mag) Slope Elevation
10 Localiser CS 111.10 MHz 27 nm / 50 km 96.29° 95.45° - 433 ft / 132 m (AMSL)
10 Glidescope CS 111.10 MHz 27 nm / 50 km 96.29° 95.45° 3.00° 433 ft / 132 m (AMSL)
10 DME CS 111.10 MHz 27 nm / 50 km - - - 433 ft / 132 m (AMSL)